sensor_id;sensor_type;location;lat;lon;timestamp;pressure;altitude;pressure_sealevel;temperature;humidity
36520;BME280;40269;46.742;9.778;2023-02-13T00:01:12;87001.72;;;-6.50;48.46
36520;BME280;40269;46.742;9.778;2023-02-13T00:03:39;86998.95;;;-5.96;46.75
36520;BME280;40269;46.742;9.778;2023-02-13T00:06:06;87003.88;;;-7.90;51.40
36520;BME280;40269;46.742;9.778;2023-02-13T00:08:34;86999.42;;;-6.34;48.72
36520;BME280;40269;46.742;9.778;2023-02-13T00:11:01;86998.81;;;-6.17;47.85
36520;BME280;40269;46.742;9.778;2023-02-13T00:13:28;87003.49;;;-8.31;52.72
36520;BME280;40269;46.742;9.778;2023-02-13T00:15:56;87001.69;;;-6.53;48.60
36520;BME280;40269;46.742;9.778;2023-02-13T00:18:24;86998.19;;;-3.97;43.15
36520;BME280;40269;46.742;9.778;2023-02-13T00:20:59;86996.42;;;-5.42;44.94
36520;BME280;40269;46.742;9.778;2023-02-13T00:23:28;86993.08;;;-5.15;44.12
36520;BME280;40269;46.742;9.778;2023-02-13T00:25:55;86991.87;;;-5.84;44.38
36520;BME280;40269;46.742;9.778;2023-02-13T00:28:22;86996.17;;;-5.43;46.81
36520;BME280;40269;46.742;9.778;2023-02-13T00:30:49;86994.74;;;-4.43;43.57
36520;BME280;40269;46.742;9.778;2023-02-13T00:33:16;87001.50;;;-7.67;50.43
36520;BME280;40269;46.742;9.778;2023-02-13T00:35:43;86997.38;;;-6.24;47.67
36520;BME280;40269;46.742;9.778;2023-02-13T00:38:10;86992.66;;;-3.97;42.83
36520;BME280;40269;46.742;9.778;2023-02-13T00:40:37;86993.05;;;-4.20;43.72
36520;BME280;40269;46.742;9.778;2023-02-13T00:43:04;86996.20;;;-4.35;44.16
36520;BME280;40269;46.742;9.778;2023-02-13T00:45:31;86999.85;;;-5.45;45.23
36520;BME280;40269;46.742;9.778;2023-02-13T00:47:57;87002.07;;;-5.82;45.66
36520;BME280;40269;46.742;9.778;2023-02-13T00:50:24;87002.02;;;-5.44;44.41
36520;BME280;40269;46.742;9.778;2023-02-13T00:52:51;87000.89;;;-5.53;43.45
36520;BME280;40269;46.742;9.778;2023-02-13T00:55:18;87004.95;;;-5.47;45.54
36520;BME280;40269;46.742;9.778;2023-02-13T00:57:45;87008.79;;;-7.13;48.57
36520;BME280;40269;46.742;9.778;2023-02-13T01:00:13;87009.16;;;-7.99;50.34
36520;BME280;40269;46.742;9.778;2023-02-13T01:02:41;87007.69;;;-8.85;53.30
36520;BME280;40269;46.742;9.778;2023-02-13T01:05:08;87011.31;;;-8.46;51.86
36520;BME280;40269;46.742;9.778;2023-02-13T01:07:35;87006.72;;;-5.06;44.77
36520;BME280;40269;46.742;9.778;2023-02-13T01:10:02;87002.80;;;-3.66;41.39
36520;BME280;40269;46.742;9.778;2023-02-13T01:12:28;87006.36;;;-4.98;43.38
36520;BME280;40269;46.742;9.778;2023-02-13T01:14:55;87006.40;;;-5.64;45.10
36520;BME280;40269;46.742;9.778;2023-02-13T01:17:22;87005.06;;;-4.82;43.23
36520;BME280;40269;46.742;9.778;2023-02-13T01:19:50;87001.99;;;-3.72;40.93
36520;BME280;40269;46.742;9.778;2023-02-13T01:22:17;87008.68;;;-6.63;46.66
36520;BME280;40269;46.742;9.778;2023-02-13T01:24:44;87011.15;;;-6.49;46.90
36520;BME280;40269;46.742;9.778;2023-02-13T01:27:11;87008.44;;;-5.53;44.31
36520;BME280;40269;46.742;9.778;2023-02-13T01:29:38;87010.51;;;-6.86;47.57
36520;BME280;40269;46.742;9.778;2023-02-13T01:32:05;87013.63;;;-8.04;50.41
36520;BME280;40269;46.742;9.778;2023-02-13T01:34:32;87013.26;;;-8.30;51.31
36520;BME280;40269;46.742;9.778;2023-02-13T01:36:59;87014.63;;;-7.94;51.46
36520;BME280;40269;46.742;9.778;2023-02-13T01:39:26;87013.29;;;-7.85;51.35
36520;BME280;40269;46.742;9.778;2023-02-13T01:41:53;87014.36;;;-8.32;51.25
36520;BME280;40269;46.742;9.778;2023-02-13T01:44:54;87012.83;;;-6.72;49.33
36520;BME280;40269;46.742;9.778;2023-02-13T01:47:26;87012.54;;;-7.58;49.38
36520;BME280;40269;46.742;9.778;2023-02-13T01:50:07;87014.05;;;-8.00;51.97
36520;BME280;40269;46.742;9.778;2023-02-13T01:52:38;87010.36;;;-7.94;51.88
36520;BME280;40269;46.742;9.778;2023-02-13T01:55:08;87013.95;;;-9.18;54.82
36520;BME280;40269;46.742;9.778;2023-02-13T01:57:37;87014.57;;;-9.69;56.57
36520;BME280;40269;46.742;9.778;2023-02-13T02:00:08;87013.77;;;-7.31;50.10
36520;BME280;40269;46.742;9.778;2023-02-13T02:02:38;87013.16;;;-7.32;49.76
36520;BME280;40269;46.742;9.778;2023-02-13T02:05:06;87009.98;;;-9.04;52.69
36520;BME280;40269;46.742;9.778;2023-02-13T02:07:35;87011.60;;;-7.20;50.25
36520;BME280;40269;46.742;9.778;2023-02-13T02:10:08;87012.09;;;-9.19;53.67
36520;BME280;40269;46.742;9.778;2023-02-13T02:12:42;87012.83;;;-6.98;49.31
36520;BME280;40269;46.742;9.778;2023-02-13T02:15:11;87011.97;;;-6.27;48.17
36520;BME280;40269;46.742;9.778;2023-02-13T02:17:38;87006.44;;;-5.60;45.73
36520;BME280;40269;46.742;9.778;2023-02-13T02:20:17;87012.94;;;-7.13;48.20
36520;BME280;40269;46.742;9.778;2023-02-13T02:23:05;87006.52;;;-6.00;46.51
36520;BME280;40269;46.742;9.778;2023-02-13T02:25:52;87009.59;;;-6.78;47.16
36520;BME280;40269;46.742;9.778;2023-02-13T02:28:38;87011.70;;;-7.50;49.46
36520;BME280;40269;46.742;9.778;2023-02-13T02:32:09;87011.93;;;-6.91;47.53
36520;BME280;40269;46.742;9.778;2023-02-13T02:34:47;87011.59;;;-7.11;49.47
36520;BME280;40269;46.742;9.778;2023-02-13T02:37:31;87013.25;;;-6.70;48.61
36520;BME280;40269;46.742;9.778;2023-02-13T02:40:10;87014.38;;;-7.45;49.19
36520;BME280;40269;46.742;9.778;2023-02-13T02:42:46;87013.06;;;-6.59;47.04
36520;BME280;40269;46.742;9.778;2023-02-13T02:45:23;87014.73;;;-6.23;46.22
36520;BME280;40269;46.742;9.778;2023-02-13T02:47:55;87018.41;;;-7.81;48.68
36520;BME280;40269;46.742;9.778;2023-02-13T02:50:32;87018.58;;;-6.83;47.70
36520;BME280;40269;46.742;9.778;2023-02-13T02:53:09;87016.52;;;-8.69;50.24
36520;BME280;40269;46.742;9.778;2023-02-13T02:55:40;87016.02;;;-8.68;52.52
36520;BME280;40269;46.742;9.778;2023-02-13T02:58:13;87015.97;;;-8.07;50.53
36520;BME280;40269;46.742;9.778;2023-02-13T03:00:44;87016.48;;;-7.82;49.58
36520;BME280;40269;46.742;9.778;2023-02-13T03:03:17;87017.03;;;-7.71;49.61
36520;BME280;40269;46.742;9.778;2023-02-13T03:05:45;87016.23;;;-8.27;50.41
36520;BME280;40269;46.742;9.778;2023-02-13T03:08:14;87016.71;;;-7.51;50.39
36520;BME280;40269;46.742;9.778;2023-02-13T03:10:41;87018.15;;;-8.96;52.24
36520;BME280;40269;46.742;9.778;2023-02-13T03:13:13;87017.72;;;-6.89;48.49
36520;BME280;40269;46.742;9.778;2023-02-13T03:15:44;87020.51;;;-7.63;50.15
36520;BME280;40269;46.742;9.778;2023-02-13T03:18:11;87019.58;;;-8.59;51.75
36520;BME280;40269;46.742;9.778;2023-02-13T03:20:45;87019.99;;;-6.77;48.19
36520;BME280;40269;46.742;9.778;2023-02-13T03:23:17;87021.88;;;-6.69;46.66
36520;BME280;40269;46.742;9.778;2023-02-13T03:26:00;87023.22;;;-7.97;49.69
36520;BME280;40269;46.742;9.778;2023-02-13T03:28:35;87026.62;;;-8.80;51.54
36520;BME280;40269;46.742;9.778;2023-02-13T03:31:16;87024.65;;;-9.80;54.80
36520;BME280;40269;46.742;9.778;2023-02-13T03:33:55;87023.76;;;-7.57;49.39
36520;BME280;40269;46.742;9.778;2023-02-13T03:36:33;87021.51;;;-6.59;47.02
36520;BME280;40269;46.742;9.778;2023-02-13T03:39:07;87023.24;;;-8.71;50.03
36520;BME280;40269;46.742;9.778;2023-02-13T03:41:38;87025.48;;;-7.78;49.54
36520;BME280;40269;46.742;9.778;2023-02-13T03:44:12;87024.98;;;-7.18;47.27
36520;BME280;40269;46.742;9.778;2023-02-13T03:46:45;87025.46;;;-8.36;49.92
36520;BME280;40269;46.742;9.778;2023-02-13T03:49:19;87030.90;;;-9.00;51.99
36520;BME280;40269;46.742;9.778;2023-02-13T03:51:51;87032.16;;;-7.88;50.71
36520;BME280;40269;46.742;9.778;2023-02-13T03:54:22;87030.53;;;-6.71;47.89
36520;BME280;40269;46.742;9.778;2023-02-13T03:56:51;87032.22;;;-6.77;46.15
36520;BME280;40269;46.742;9.778;2023-02-13T03:59:23;87035.39;;;-6.74;46.46
36520;BME280;40269;46.742;9.778;2023-02-13T04:02:00;87039.00;;;-6.79;46.05
36520;BME280;40269;46.742;9.778;2023-02-13T04:04:36;87041.83;;;-7.04;47.48
36520;BME280;40269;46.742;9.778;2023-02-13T04:07:07;87046.92;;;-7.99;49.24
36520;BME280;40269;46.742;9.778;2023-02-13T04:09:37;87043.32;;;-7.90;49.52
36520;BME280;40269;46.742;9.778;2023-02-13T04:12:11;87044.57;;;-8.69;50.55
36520;BME280;40269;46.742;9.778;2023-02-13T04:14:47;87046.18;;;-6.21;45.67
36520;BME280;40269;46.742;9.778;2023-02-13T04:17:20;87048.70;;;-6.46;45.14
36520;BME280;40269;46.742;9.778;2023-02-13T04:19:50;87051.84;;;-6.62;45.07
36520;BME280;40269;46.742;9.778;2023-02-13T04:22:17;87051.81;;;-6.16;43.87
36520;BME280;40269;46.742;9.778;2023-02-13T04:24:45;87052.20;;;-6.39;45.52
36520;BME280;40269;46.742;9.778;2023-02-13T04:27:13;87053.79;;;-7.74;46.96
36520;BME280;40269;46.742;9.778;2023-02-13T04:29:41;87050.26;;;-5.49;43.69
36520;BME280;40269;46.742;9.778;2023-02-13T04:32:09;87054.69;;;-7.04;45.47
36520;BME280;40269;46.742;9.778;2023-02-13T04:34:36;87058.00;;;-7.88;47.73
36520;BME280;40269;46.742;9.778;2023-02-13T04:37:03;87057.94;;;-7.77;48.26
36520;BME280;40269;46.742;9.778;2023-02-13T04:39:30;87058.83;;;-7.27;46.20
36520;BME280;40269;46.742;9.778;2023-02-13T04:41:57;87059.94;;;-6.14;45.39
36520;BME280;40269;46.742;9.778;2023-02-13T04:44:24;87058.73;;;-5.64;43.94
36520;BME280;40269;46.742;9.778;2023-02-13T04:46:51;87063.09;;;-6.53;45.02
36520;BME280;40269;46.742;9.778;2023-02-13T04:49:18;87057.87;;;-5.50;42.92
36520;BME280;40269;46.742;9.778;2023-02-13T04:51:45;87058.67;;;-5.01;42.49
36520;BME280;40269;46.742;9.778;2023-02-13T04:54:12;87061.26;;;-6.77;44.72
36520;BME280;40269;46.742;9.778;2023-02-13T04:56:39;87060.78;;;-9.33;51.19
36520;BME280;40269;46.742;9.778;2023-02-13T04:59:06;87062.66;;;-9.82;52.88
36520;BME280;40269;46.742;9.778;2023-02-13T05:01:33;87062.99;;;-10.55;56.22
36520;BME280;40269;46.742;9.778;2023-02-13T05:04:00;87064.72;;;-9.90;54.85
36520;BME280;40269;46.742;9.778;2023-02-13T05:06:27;87062.48;;;-9.42;53.46
36520;BME280;40269;46.742;9.778;2023-02-13T05:08:54;87060.94;;;-9.94;53.69
36520;BME280;40269;46.742;9.778;2023-02-13T05:11:21;87061.98;;;-8.83;52.13
36520;BME280;40269;46.742;9.778;2023-02-13T05:13:48;87063.28;;;-7.85;48.98
36520;BME280;40269;46.742;9.778;2023-02-13T05:16:16;87066.10;;;-8.95;51.30
36520;BME280;40269;46.742;9.778;2023-02-13T05:18:43;87066.68;;;-8.61;50.73
36520;BME280;40269;46.742;9.778;2023-02-13T05:21:10;87067.78;;;-9.58;53.08
36520;BME280;40269;46.742;9.778;2023-02-13T05:23:37;87070.79;;;-10.09;55.48
36520;BME280;40269;46.742;9.778;2023-02-13T05:26:04;87065.44;;;-9.66;54.05
36520;BME280;40269;46.742;9.778;2023-02-13T05:28:31;87067.16;;;-7.42;49.57
36520;BME280;40269;46.742;9.778;2023-02-13T05:30:58;87065.62;;;-5.70;44.87
36520;BME280;40269;46.742;9.778;2023-02-13T05:33:25;87058.47;;;-5.20;43.06
36520;BME280;40269;46.742;9.778;2023-02-13T05:35:52;87062.87;;;-5.78;43.43
36520;BME280;40269;46.742;9.778;2023-02-13T05:38:18;87066.47;;;-7.49;46.28
36520;BME280;40269;46.742;9.778;2023-02-13T05:40:45;87069.78;;;-8.07;48.31
36520;BME280;40269;46.742;9.778;2023-02-13T05:43:12;87073.21;;;-7.17;47.70
36520;BME280;40269;46.742;9.778;2023-02-13T05:45:39;87072.67;;;-7.93;49.13
36520;BME280;40269;46.742;9.778;2023-02-13T05:48:06;87076.30;;;-8.72;50.78
36520;BME280;40269;46.742;9.778;2023-02-13T05:50:33;87076.13;;;-8.92;50.58
36520;BME280;40269;46.742;9.778;2023-02-13T05:53:00;87072.99;;;-9.69;52.61
36520;BME280;40269;46.742;9.778;2023-02-13T05:55:27;87074.96;;;-9.88;53.54
36520;BME280;40269;46.742;9.778;2023-02-13T05:57:55;87070.47;;;-8.53;52.16
36520;BME280;40269;46.742;9.778;2023-02-13T06:00:22;87071.77;;;-9.90;53.77
36520;BME280;40269;46.742;9.778;2023-02-13T06:02:50;87071.58;;;-9.16;52.15
36520;BME280;40269;46.742;9.778;2023-02-13T06:05:17;87076.27;;;-8.44;50.72
36520;BME280;40269;46.742;9.778;2023-02-13T06:07:44;87077.29;;;-7.35;47.47
36520;BME280;40269;46.742;9.778;2023-02-13T06:10:11;87076.21;;;-5.85;44.85
36520;BME280;40269;46.742;9.778;2023-02-13T06:12:38;87079.28;;;-7.18;46.69
36520;BME280;40269;46.742;9.778;2023-02-13T06:15:06;87081.17;;;-6.20;44.10
36520;BME280;40269;46.742;9.778;2023-02-13T06:17:33;87081.44;;;-6.74;45.95
36520;BME280;40269;46.742;9.778;2023-02-13T06:20:00;87084.26;;;-9.62;52.40
36520;BME280;40269;46.742;9.778;2023-02-13T06:22:26;87087.88;;;-8.12;50.13
36520;BME280;40269;46.742;9.778;2023-02-13T06:24:54;87090.11;;;-8.34;49.64
36520;BME280;40269;46.742;9.778;2023-02-13T06:27:20;87093.44;;;-10.03;54.34
36520;BME280;40269;46.742;9.778;2023-02-13T06:29:48;87099.75;;;-10.66;58.34
36520;BME280;40269;46.742;9.778;2023-02-13T06:32:15;87097.31;;;-10.27;56.46
36520;BME280;40269;46.742;9.778;2023-02-13T06:34:42;87096.47;;;-10.19;55.99
36520;BME280;40269;46.742;9.778;2023-02-13T06:37:09;87097.75;;;-9.00;51.92
36520;BME280;40269;46.742;9.778;2023-02-13T06:39:36;87099.44;;;-7.26;47.60
36520;BME280;40269;46.742;9.778;2023-02-13T06:42:03;87100.51;;;-7.70;48.43
36520;BME280;40269;46.742;9.778;2023-02-13T06:44:30;87105.81;;;-9.10;51.71
36520;BME280;40269;46.742;9.778;2023-02-13T06:46:57;87110.73;;;-9.93;53.73
36520;BME280;40269;46.742;9.778;2023-02-13T06:49:24;87114.30;;;-8.41;51.44
36520;BME280;40269;46.742;9.778;2023-02-13T06:51:51;87114.03;;;-8.71;49.95
36520;BME280;40269;46.742;9.778;2023-02-13T06:54:18;87118.37;;;-8.12;49.18
36520;BME280;40269;46.742;9.778;2023-02-13T06:56:45;87115.85;;;-7.67;47.48
36520;BME280;40269;46.742;9.778;2023-02-13T06:59:13;87117.35;;;-5.85;44.40
36520;BME280;40269;46.742;9.778;2023-02-13T07:01:39;87119.36;;;-6.86;45.95
36520;BME280;40269;46.742;9.778;2023-02-13T07:04:06;87114.75;;;-7.89;47.61
36520;BME280;40269;46.742;9.778;2023-02-13T07:06:33;87123.40;;;-9.73;53.46
36520;BME280;40269;46.742;9.778;2023-02-13T07:09:01;87128.07;;;-10.65;56.39
36520;BME280;40269;46.742;9.778;2023-02-13T07:11:28;87125.52;;;-10.17;54.85
36520;BME280;40269;46.742;9.778;2023-02-13T07:13:55;87123.12;;;-8.46;50.65
36520;BME280;40269;46.742;9.778;2023-02-13T07:16:22;87125.23;;;-7.44;47.85
36520;BME280;40269;46.742;9.778;2023-02-13T07:18:49;87129.96;;;-6.60;45.77
36520;BME280;40269;46.742;9.778;2023-02-13T07:21:17;87131.00;;;-7.43;46.28
36520;BME280;40269;46.742;9.778;2023-02-13T07:23:44;87132.73;;;-6.53;44.98
36520;BME280;40269;46.742;9.778;2023-02-13T07:26:10;87135.62;;;-9.27;50.41
36520;BME280;40269;46.742;9.778;2023-02-13T07:28:37;87142.02;;;-9.55;52.48
36520;BME280;40269;46.742;9.778;2023-02-13T07:31:05;87141.47;;;-8.38;50.07
36520;BME280;40269;46.742;9.778;2023-02-13T07:33:32;87142.89;;;-6.68;46.70
36520;BME280;40269;46.742;9.778;2023-02-13T07:35:59;87143.15;;;-8.30;48.73
36520;BME280;40269;46.742;9.778;2023-02-13T07:38:26;87147.67;;;-9.30;51.15
36520;BME280;40269;46.742;9.778;2023-02-13T07:40:53;87151.79;;;-10.09;53.57
36520;BME280;40269;46.742;9.778;2023-02-13T07:43:20;87151.17;;;-9.39;53.40
36520;BME280;40269;46.742;9.778;2023-02-13T07:45:48;87149.86;;;-8.23;50.11
36520;BME280;40269;46.742;9.778;2023-02-13T07:48:14;87151.05;;;-8.00;49.31
36520;BME280;40269;46.742;9.778;2023-02-13T07:50:41;87150.87;;;-8.16;49.42
36520;BME280;40269;46.742;9.778;2023-02-13T07:53:08;87150.70;;;-7.13;46.73
36520;BME280;40269;46.742;9.778;2023-02-13T07:55:35;87152.05;;;-7.46;47.54
36520;BME280;40269;46.742;9.778;2023-02-13T07:58:02;87151.38;;;-6.52;45.49
36520;BME280;40269;46.742;9.778;2023-02-13T08:00:29;87150.68;;;-6.87;44.96
36520;BME280;40269;46.742;9.778;2023-02-13T08:02:58;87149.11;;;-5.63;43.80
36520;BME280;40269;46.742;9.778;2023-02-13T08:05:25;87148.99;;;-5.10;41.82
36520;BME280;40269;46.742;9.778;2023-02-13T08:07:52;87149.80;;;-6.45;43.27
36520;BME280;40269;46.742;9.778;2023-02-13T08:10:19;87149.43;;;-6.91;45.17
36520;BME280;40269;46.742;9.778;2023-02-13T08:12:47;87152.33;;;-7.95;47.54
36520;BME280;40269;46.742;9.778;2023-02-13T08:15:15;87149.76;;;-6.71;46.07
36520;BME280;40269;46.742;9.778;2023-02-13T08:17:42;87149.10;;;-8.31;50.17
36520;BME280;40269;46.742;9.778;2023-02-13T08:20:10;87151.22;;;-8.41;51.17
36520;BME280;40269;46.742;9.778;2023-02-13T08:22:38;87150.36;;;-8.18;48.91
36520;BME280;40269;46.742;9.778;2023-02-13T08:25:06;87150.99;;;-8.82;51.00
36520;BME280;40269;46.742;9.778;2023-02-13T08:27:34;87151.31;;;-8.12;48.97
36520;BME280;40269;46.742;9.778;2023-02-13T08:30:01;87147.29;;;-7.02;47.32
36520;BME280;40269;46.742;9.778;2023-02-13T08:32:28;87142.33;;;-3.97;41.61
36520;BME280;40269;46.742;9.778;2023-02-13T08:34:55;87143.06;;;-6.36;44.86
36520;BME280;40269;46.742;9.778;2023-02-13T08:37:22;87136.01;;;-3.98;41.22
36520;BME280;40269;46.742;9.778;2023-02-13T08:39:50;87138.37;;;-5.45;43.08
36520;BME280;40269;46.742;9.778;2023-02-13T08:42:17;87134.60;;;-3.35;40.06
36520;BME280;40269;46.742;9.778;2023-02-13T08:44:44;87136.04;;;-4.19;41.52
36520;BME280;40269;46.742;9.778;2023-02-13T08:47:11;87137.90;;;-4.88;43.90
36520;BME280;40269;46.742;9.778;2023-02-13T08:49:38;87132.39;;;-3.89;43.28
36520;BME280;40269;46.742;9.778;2023-02-13T08:52:05;87131.53;;;-5.03;46.47
36520;BME280;40269;46.742;9.778;2023-02-13T08:54:33;87136.95;;;-5.84;48.38
36520;BME280;40269;46.742;9.778;2023-02-13T08:56:59;87130.37;;;-3.53;43.43
36520;BME280;40269;46.742;9.778;2023-02-13T08:59:27;87135.12;;;-3.01;43.13
36520;BME280;40269;46.742;9.778;2023-02-13T09:01:54;87133.98;;;-3.16;42.96
36520;BME280;40269;46.742;9.778;2023-02-13T09:04:20;87130.71;;;-2.37;41.38
36520;BME280;40269;46.742;9.778;2023-02-13T09:06:48;87133.69;;;-1.90;40.39
36520;BME280;40269;46.742;9.778;2023-02-13T09:09:15;87132.47;;;-0.59;38.96
36520;BME280;40269;46.742;9.778;2023-02-13T09:11:42;87132.77;;;-0.81;39.27
36520;BME280;40269;46.742;9.778;2023-02-13T09:14:08;87128.51;;;-0.21;39.08
36520;BME280;40269;46.742;9.778;2023-02-13T09:16:35;87126.04;;;0.17;37.43
36520;BME280;40269;46.742;9.778;2023-02-13T09:19:02;87129.61;;;-1.28;40.24
36520;BME280;40269;46.742;9.778;2023-02-13T09:21:29;87122.76;;;2.24;33.94
36520;BME280;40269;46.742;9.778;2023-02-13T09:23:56;87128.44;;;2.79;32.64
36520;BME280;40269;46.742;9.778;2023-02-13T09:26:23;87126.68;;;2.60;33.94
36520;BME280;40269;46.742;9.778;2023-02-13T09:28:50;87128.15;;;0.86;34.96
36520;BME280;40269;46.742;9.778;2023-02-13T09:31:19;87128.56;;;3.47;32.57
36520;BME280;40269;46.742;9.778;2023-02-13T09:33:47;87128.26;;;3.62;33.02
36520;BME280;40269;46.742;9.778;2023-02-13T09:36:16;87128.42;;;2.61;34.89
36520;BME280;40269;46.742;9.778;2023-02-13T09:38:43;87125.81;;;4.14;32.80
36520;BME280;40269;46.742;9.778;2023-02-13T09:41:12;87122.54;;;6.26;28.83
36520;BME280;40269;46.742;9.778;2023-02-13T09:43:45;87121.85;;;6.61;28.30
36520;BME280;40269;46.742;9.778;2023-02-13T09:46:17;87120.61;;;5.39;30.22
36520;BME280;40269;46.742;9.778;2023-02-13T09:48:49;87119.65;;;6.36;29.66
36520;BME280;40269;46.742;9.778;2023-02-13T09:51:19;87122.31;;;6.00;29.60
36520;BME280;40269;46.742;9.778;2023-02-13T09:53:51;87121.17;;;6.23;29.03
36520;BME280;40269;46.742;9.778;2023-02-13T09:56:26;87120.91;;;5.89;28.52
36520;BME280;40269;46.742;9.778;2023-02-13T09:59:05;87117.80;;;5.65;31.19
36520;BME280;40269;46.742;9.778;2023-02-13T10:01:40;87116.74;;;8.71;26.41
36520;BME280;40269;46.742;9.778;2023-02-13T10:04:21;87118.70;;;7.80;27.86
36520;BME280;40269;46.742;9.778;2023-02-13T10:06:59;87117.68;;;8.09;26.06
36520;BME280;40269;46.742;9.778;2023-02-13T10:09:37;87115.66;;;7.11;28.88
36520;BME280;40269;46.742;9.778;2023-02-13T10:12:26;87115.64;;;7.90;27.40
36520;BME280;40269;46.742;9.778;2023-02-13T10:15:04;87108.16;;;10.08;24.55
36520;BME280;40269;46.742;9.778;2023-02-13T10:17:39;87112.88;;;9.38;25.10
36520;BME280;40269;46.742;9.778;2023-02-13T10:20:20;87104.62;;;10.88;24.12
36520;BME280;40269;46.742;9.778;2023-02-13T10:22:55;87104.45;;;9.35;24.92
36520;BME280;40269;46.742;9.778;2023-02-13T10:25:24;87102.91;;;10.77;23.74
36520;BME280;40269;46.742;9.778;2023-02-13T10:27:57;87099.52;;;11.41;23.42
36520;BME280;40269;46.742;9.778;2023-02-13T10:30:29;87099.31;;;10.79;24.15
36520;BME280;40269;46.742;9.778;2023-02-13T10:32:59;87097.22;;;12.37;22.99
36520;BME280;40269;46.742;9.778;2023-02-13T10:35:30;87098.84;;;13.24;21.38
36520;BME280;40269;46.742;9.778;2023-02-13T10:37:59;87095.84;;;14.55;21.86
36520;BME280;40269;46.742;9.778;2023-02-13T10:40:32;87088.00;;;15.10;21.29
36520;BME280;40269;46.742;9.778;2023-02-13T10:43:07;87085.41;;;15.24;19.99
36520;BME280;40269;46.742;9.778;2023-02-13T10:46:13;87083.14;;;15.73;21.31
36520;BME280;40269;46.742;9.778;2023-02-13T10:48:54;87076.29;;;16.41;20.24
36520;BME280;40269;46.742;9.778;2023-02-13T10:51:29;87075.15;;;17.19;19.00
36520;BME280;40269;46.742;9.778;2023-02-13T10:54:16;87070.29;;;16.09;18.71
36520;BME280;40269;46.742;9.778;2023-02-13T10:56:52;87064.49;;;15.53;19.43
36520;BME280;40269;46.742;9.778;2023-02-13T10:59:34;87065.33;;;16.90;18.57
36520;BME280;40269;46.742;9.778;2023-02-13T11:02:19;87060.63;;;18.46;16.82
36520;BME280;40269;46.742;9.778;2023-02-13T11:04:48;87058.65;;;18.27;17.14
36520;BME280;40269;46.742;9.778;2023-02-13T11:07:17;87057.33;;;17.33;17.20
36520;BME280;40269;46.742;9.778;2023-02-13T11:09:47;87052.50;;;16.60;18.25
36520;BME280;40269;46.742;9.778;2023-02-13T11:12:31;87053.03;;;17.64;17.63
36520;BME280;40269;46.742;9.778;2023-02-13T11:15:00;87050.92;;;18.10;16.80
36520;BME280;40269;46.742;9.778;2023-02-13T11:17:30;87046.50;;;16.47;18.96
36520;BME280;40269;46.742;9.778;2023-02-13T11:20:00;87043.06;;;13.51;20.56
36520;BME280;40269;46.742;9.778;2023-02-13T11:22:31;87041.67;;;16.12;17.46
36520;BME280;40269;46.742;9.778;2023-02-13T11:25:01;87041.12;;;17.48;17.36
36520;BME280;40269;46.742;9.778;2023-02-13T11:27:32;87037.56;;;18.54;16.93
36520;BME280;40269;46.742;9.778;2023-02-13T11:30:03;87035.72;;;18.01;19.46
36520;BME280;40269;46.742;9.778;2023-02-13T11:32:32;87033.51;;;19.85;16.92
36520;BME280;40269;46.742;9.778;2023-02-13T11:35:26;87032.28;;;21.10;15.12
36520;BME280;40269;46.742;9.778;2023-02-13T11:38:12;87026.47;;;22.44;15.83
36520;BME280;40269;46.742;9.778;2023-02-13T11:40:48;87028.05;;;21.81;16.01
36520;BME280;40269;46.742;9.778;2023-02-13T11:43:18;87029.25;;;18.27;17.47
36520;BME280;40269;46.742;9.778;2023-02-13T11:46:00;87026.10;;;17.71;17.13
36520;BME280;40269;46.742;9.778;2023-02-13T11:48:27;87023.91;;;21.06;16.31
36520;BME280;40269;46.742;9.778;2023-02-13T11:50:55;87024.41;;;21.54;16.05
36520;BME280;40269;46.742;9.778;2023-02-13T11:53:26;87026.59;;;23.29;13.40
36520;BME280;40269;46.742;9.778;2023-02-13T11:56:05;87026.91;;;24.01;14.76
36520;BME280;40269;46.742;9.778;2023-02-13T11:58:33;87023.81;;;21.21;14.79
36520;BME280;40269;46.742;9.778;2023-02-13T12:01:14;87026.37;;;24.43;13.22
36520;BME280;40269;46.742;9.778;2023-02-13T12:04:01;87024.11;;;23.25;13.54
36520;BME280;40269;46.742;9.778;2023-02-13T12:06:29;87019.03;;;25.05;12.05
36520;BME280;40269;46.742;9.778;2023-02-13T12:08:57;87019.49;;;24.45;12.53
36520;BME280;40269;46.742;9.778;2023-02-13T12:11:33;87015.09;;;24.70;13.11
36520;BME280;40269;46.742;9.778;2023-02-13T12:14:02;87011.98;;;25.39;12.79
36520;BME280;40269;46.742;9.778;2023-02-13T12:16:34;87010.31;;;25.40;11.90
36520;BME280;40269;46.742;9.778;2023-02-13T12:19:05;87007.71;;;24.35;12.59
36520;BME280;40269;46.742;9.778;2023-02-13T12:21:44;87007.26;;;26.21;12.42
36520;BME280;40269;46.742;9.778;2023-02-13T12:24:27;87007.17;;;26.63;12.18
36520;BME280;40269;46.742;9.778;2023-02-13T12:27:04;87005.79;;;26.02;12.00
36520;BME280;40269;46.742;9.778;2023-02-13T12:29:54;87006.37;;;25.92;11.75
36520;BME280;40269;46.742;9.778;2023-02-13T12:32:32;87003.78;;;26.62;10.99
36520;BME280;40269;46.742;9.778;2023-02-13T12:35:31;86998.94;;;25.41;11.90
36520;BME280;40269;46.742;9.778;2023-02-13T12:38:14;86995.60;;;26.48;11.07
36520;BME280;40269;46.742;9.778;2023-02-13T12:41:06;86992.84;;;26.06;11.49
36520;BME280;40269;46.742;9.778;2023-02-13T12:44:01;86992.79;;;27.16;11.04
36520;BME280;40269;46.742;9.778;2023-02-13T12:46:35;86989.75;;;26.35;11.45
36520;BME280;40269;46.742;9.778;2023-02-13T12:49:16;86990.33;;;25.97;11.28
36520;BME280;40269;46.742;9.778;2023-02-13T12:51:53;86989.68;;;24.96;13.01
36520;BME280;40269;46.742;9.778;2023-02-13T12:54:35;86988.05;;;25.51;12.34
36520;BME280;40269;46.742;9.778;2023-02-13T12:57:12;86985.69;;;25.39;13.11
36520;BME280;40269;46.742;9.778;2023-02-13T12:59:54;86980.95;;;20.71;13.04
36520;BME280;40269;46.742;9.778;2023-02-13T13:02:43;86982.72;;;22.52;14.65
36520;BME280;40269;46.742;9.778;2023-02-13T13:05:19;86976.32;;;14.24;17.85
36520;BME280;40269;46.742;9.778;2023-02-13T13:08:02;86978.56;;;18.23;16.48
36520;BME280;40269;46.742;9.778;2023-02-13T13:10:45;86977.22;;;17.01;17.27
36520;BME280;40269;46.742;9.778;2023-02-13T13:13:23;86977.62;;;17.46;15.25
36520;BME280;40269;46.742;9.778;2023-02-13T13:15:57;86975.62;;;13.77;18.38
36520;BME280;40269;46.742;9.778;2023-02-13T13:18:34;86978.45;;;13.70;21.75
36520;BME280;40269;46.742;9.778;2023-02-13T13:21:11;86975.04;;;13.33;19.17